sensor_id;sensor_type;location;lat;lon;timestamp;temperature;humidity
3818;DHT22;1924;48.078;11.516;2023-03-01T00:00:00;0.90;99.90
3818;DHT22;1924;48.078;11.516;2023-03-01T00:02:29;1.00;99.90
3818;DHT22;1924;48.078;11.516;2023-03-01T00:04:58;1.00;99.90
3818;DHT22;1924;48.078;11.516;2023-03-01T00:07:25;1.00;99.90
3818;DHT22;1924;48.078;11.516;2023-03-01T00:09:53;0.90;99.90
3818;DHT22;1924;48.078;11.516;2023-03-01T00:12:19;0.90;99.90
3818;DHT22;1924;48.078;11.516;2023-03-01T00:14:46;0.80;99.90
3818;DHT22;1924;48.078;11.516;2023-03-01T00:17:13;0.80;99.90
3818;DHT22;1924;48.078;11.516;2023-03-01T00:19:40;0.90;99.90
3818;DHT22;1924;48.078;11.516;2023-03-01T00:22:06;0.90;99.90
3818;DHT22;1924;48.078;11.516;2023-03-01T00:24:33;0.90;99.90
3818;DHT22;1924;48.078;11.516;2023-03-01T00:27:01;0.90;99.90
3818;DHT22;1924;48.078;11.516;2023-03-01T00:29:28;0.90;99.90
3818;DHT22;1924;48.078;11.516;2023-03-01T00:31:55;1.00;99.90
3818;DHT22;1924;48.078;11.516;2023-03-01T00:34:21;1.00;99.90
3818;DHT22;1924;48.078;11.516;2023-03-01T00:36:48;0.90;99.90
3818;DHT22;1924;48.078;11.516;2023-03-01T00:39:15;1.00;99.90
3818;DHT22;1924;48.078;11.516;2023-03-01T00:41:42;1.00;99.90
3818;DHT22;1924;48.078;11.516;2023-03-01T00:44:11;0.90;99.90
3818;DHT22;1924;48.078;11.516;2023-03-01T00:46:38;0.90;99.90
3818;DHT22;1924;48.078;11.516;2023-03-01T00:49:05;0.90;99.90
3818;DHT22;1924;48.078;11.516;2023-03-01T00:51:31;1.00;99.90
3818;DHT22;1924;48.078;11.516;2023-03-01T00:54:00;0.90;99.90
3818;DHT22;1924;48.078;11.516;2023-03-01T00:56:27;1.00;99.90
3818;DHT22;1924;48.078;11.516;2023-03-01T00:58:55;0.90;99.90
3818;DHT22;1924;48.078;11.516;2023-03-01T01:01:24;0.90;99.90
3818;DHT22;1924;48.078;11.516;2023-03-01T01:03:54;1.00;99.90
3818;DHT22;1924;48.078;11.516;2023-03-01T01:06:24;0.90;99.90
3818;DHT22;1924;48.078;11.516;2023-03-01T01:08:51;1.00;99.90
3818;DHT22;1924;48.078;11.516;2023-03-01T01:11:19;1.00;99.90
3818;DHT22;1924;48.078;11.516;2023-03-01T01:13:47;1.10;99.90
3818;DHT22;1924;48.078;11.516;2023-03-01T01:16:15;1.10;99.90
3818;DHT22;1924;48.078;11.516;2023-03-01T01:18:43;1.00;99.90
3818;DHT22;1924;48.078;11.516;2023-03-01T01:21:11;0.90;99.90
3818;DHT22;1924;48.078;11.516;2023-03-01T01:23:39;0.80;99.90
3818;DHT22;1924;48.078;11.516;2023-03-01T01:26:09;0.80;99.90
3818;DHT22;1924;48.078;11.516;2023-03-01T01:28:36;0.80;99.90
3818;DHT22;1924;48.078;11.516;2023-03-01T01:31:03;0.70;99.90
3818;DHT22;1924;48.078;11.516;2023-03-01T01:33:30;0.70;99.90
3818;DHT22;1924;48.078;11.516;2023-03-01T01:35:59;0.70;99.90
3818;DHT22;1924;48.078;11.516;2023-03-01T01:38:25;0.60;99.90
3818;DHT22;1924;48.078;11.516;2023-03-01T01:40:52;0.70;99.90
3818;DHT22;1924;48.078;11.516;2023-03-01T01:43:22;0.70;99.90
3818;DHT22;1924;48.078;11.516;2023-03-01T01:45:49;0.70;99.90
3818;DHT22;1924;48.078;11.516;2023-03-01T01:48:19;0.90;99.90
3818;DHT22;1924;48.078;11.516;2023-03-01T01:50:50;0.90;99.90
3818;DHT22;1924;48.078;11.516;2023-03-01T01:53:20;0.90;99.90
3818;DHT22;1924;48.078;11.516;2023-03-01T01:55:53;0.80;99.90
3818;DHT22;1924;48.078;11.516;2023-03-01T01:58:24;0.80;99.90
3818;DHT22;1924;48.078;11.516;2023-03-01T02:00:51;0.80;99.90
3818;DHT22;1924;48.078;11.516;2023-03-01T02:03:23;0.90;99.90
3818;DHT22;1924;48.078;11.516;2023-03-01T02:05:58;0.90;99.90
3818;DHT22;1924;48.078;11.516;2023-03-01T02:08:33;0.80;99.90
3818;DHT22;1924;48.078;11.516;2023-03-01T02:11:01;0.90;99.90
3818;DHT22;1924;48.078;11.516;2023-03-01T02:13:30;0.90;99.90
3818;DHT22;1924;48.078;11.516;2023-03-01T02:15:57;0.80;99.90
3818;DHT22;1924;48.078;11.516;2023-03-01T02:18:24;0.70;99.90
3818;DHT22;1924;48.078;11.516;2023-03-01T02:21:01;0.60;99.90
3818;DHT22;1924;48.078;11.516;2023-03-01T02:23:33;0.60;99.90
3818;DHT22;1924;48.078;11.516;2023-03-01T02:26:05;0.60;99.90
3818;DHT22;1924;48.078;11.516;2023-03-01T02:28:36;0.70;99.90
3818;DHT22;1924;48.078;11.516;2023-03-01T02:31:05;0.70;99.90
3818;DHT22;1924;48.078;11.516;2023-03-01T02:33:50;0.60;99.90
3818;DHT22;1924;48.078;11.516;2023-03-01T02:36:19;0.50;99.90
3818;DHT22;1924;48.078;11.516;2023-03-01T02:38:47;0.50;99.90
3818;DHT22;1924;48.078;11.516;2023-03-01T02:41:16;0.50;99.90
3818;DHT22;1924;48.078;11.516;2023-03-01T02:43:45;0.50;99.90
3818;DHT22;1924;48.078;11.516;2023-03-01T02:46:15;0.50;99.90
3818;DHT22;1924;48.078;11.516;2023-03-01T02:48:44;0.60;99.90
3818;DHT22;1924;48.078;11.516;2023-03-01T02:51:22;0.70;99.90
3818;DHT22;1924;48.078;11.516;2023-03-01T02:53:59;0.70;99.90
3818;DHT22;1924;48.078;11.516;2023-03-01T02:56:28;0.80;99.90
3818;DHT22;1924;48.078;11.516;2023-03-01T02:58:57;0.70;99.90
3818;DHT22;1924;48.078;11.516;2023-03-01T03:01:27;0.70;99.90
3818;DHT22;1924;48.078;11.516;2023-03-01T03:04:02;0.80;99.90
3818;DHT22;1924;48.078;11.516;2023-03-01T05:02:28;0.00;99.90
3818;DHT22;1924;48.078;11.516;2023-03-01T05:04:55;0.10;99.90
3818;DHT22;1924;48.078;11.516;2023-03-01T05:07:23;-0.10;99.90
3818;DHT22;1924;48.078;11.516;2023-03-01T05:09:50;-0.10;99.90
3818;DHT22;1924;48.078;11.516;2023-03-01T05:12:16;-0.10;99.90
3818;DHT22;1924;48.078;11.516;2023-03-01T05:14:43;0.00;99.90
3818;DHT22;1924;48.078;11.516;2023-03-01T05:17:10;0.00;99.90
3818;DHT22;1924;48.078;11.516;2023-03-01T05:19:38;-0.10;99.90
3818;DHT22;1924;48.078;11.516;2023-03-01T05:22:08;-0.20;99.90
3818;DHT22;1924;48.078;11.516;2023-03-01T05:24:35;0.00;99.90
3818;DHT22;1924;48.078;11.516;2023-03-01T05:27:02;0.00;99.90
3818;DHT22;1924;48.078;11.516;2023-03-01T05:29:31;-0.10;99.90
3818;DHT22;1924;48.078;11.516;2023-03-01T05:32:01;-0.20;99.90
3818;DHT22;1924;48.078;11.516;2023-03-01T05:34:29;0.00;99.90
3818;DHT22;1924;48.078;11.516;2023-03-01T05:36:58;0.00;99.90
3818;DHT22;1924;48.078;11.516;2023-03-01T05:39:27;-0.10;99.90
3818;DHT22;1924;48.078;11.516;2023-03-01T05:41:55;-0.10;99.90
3818;DHT22;1924;48.078;11.516;2023-03-01T05:44:22;0.00;99.90
3818;DHT22;1924;48.078;11.516;2023-03-01T05:46:49;-0.10;99.90
3818;DHT22;1924;48.078;11.516;2023-03-01T05:49:16;-0.10;99.90
3818;DHT22;1924;48.078;11.516;2023-03-01T05:51:47;-0.10;99.90
3818;DHT22;1924;48.078;11.516;2023-03-01T05:54:15;-0.20;99.90
3818;DHT22;1924;48.078;11.516;2023-03-01T05:56:43;-0.40;99.90
3818;DHT22;1924;48.078;11.516;2023-03-01T05:59:10;-0.40;99.90
3818;DHT22;1924;48.078;11.516;2023-03-01T06:01:37;-0.40;99.90
3818;DHT22;1924;48.078;11.516;2023-03-01T06:04:04;-0.30;99.90
3818;DHT22;1924;48.078;11.516;2023-03-01T06:06:33;-0.10;99.90
3818;DHT22;1924;48.078;11.516;2023-03-01T06:09:00;-0.20;99.90
3818;DHT22;1924;48.078;11.516;2023-03-01T06:11:28;-0.40;99.90
3818;DHT22;1924;48.078;11.516;2023-03-01T06:13:55;-0.30;99.90
3818;DHT22;1924;48.078;11.516;2023-03-01T06:16:22;-0.10;99.90
3818;DHT22;1924;48.078;11.516;2023-03-01T06:18:48;-0.30;99.90
3818;DHT22;1924;48.078;11.516;2023-03-01T06:21:15;-0.20;99.90
3818;DHT22;1924;48.078;11.516;2023-03-01T06:23:42;-0.10;99.90
3818;DHT22;1924;48.078;11.516;2023-03-01T06:26:09;-0.20;99.90
3818;DHT22;1924;48.078;11.516;2023-03-01T06:28:37;-0.30;99.90
3818;DHT22;1924;48.078;11.516;2023-03-01T06:31:04;-0.40;99.90
3818;DHT22;1924;48.078;11.516;2023-03-01T06:33:33;-0.50;99.90
3818;DHT22;1924;48.078;11.516;2023-03-01T06:36:01;-0.30;99.90
3818;DHT22;1924;48.078;11.516;2023-03-01T06:38:28;-0.30;99.90
3818;DHT22;1924;48.078;11.516;2023-03-01T06:40:55;-0.20;99.90
3818;DHT22;1924;48.078;11.516;2023-03-01T06:43:22;-0.40;99.90
3818;DHT22;1924;48.078;11.516;2023-03-01T06:45:51;-0.40;99.90
3818;DHT22;1924;48.078;11.516;2023-03-01T06:48:18;-0.60;99.90
3818;DHT22;1924;48.078;11.516;2023-03-01T06:50:44;-0.40;99.90
3818;DHT22;1924;48.078;11.516;2023-03-01T06:53:11;-0.30;99.90
3818;DHT22;1924;48.078;11.516;2023-03-01T06:55:38;-0.10;99.90
3818;DHT22;1924;48.078;11.516;2023-03-01T06:58:04;0.10;99.90
3818;DHT22;1924;48.078;11.516;2023-03-01T07:00:31;-0.10;99.90
3818;DHT22;1924;48.078;11.516;2023-03-01T07:03:01;-0.10;99.90
3818;DHT22;1924;48.078;11.516;2023-03-01T07:05:28;-0.30;99.90
3818;DHT22;1924;48.078;11.516;2023-03-01T07:07:55;-0.30;99.90
3818;DHT22;1924;48.078;11.516;2023-03-01T07:10:22;-0.30;99.90
3818;DHT22;1924;48.078;11.516;2023-03-01T07:12:48;-0.40;99.90
3818;DHT22;1924;48.078;11.516;2023-03-01T07:15:15;-0.50;99.90
3818;DHT22;1924;48.078;11.516;2023-03-01T07:17:42;-0.50;99.90
3818;DHT22;1924;48.078;11.516;2023-03-01T07:20:12;-0.30;99.90
3818;DHT22;1924;48.078;11.516;2023-03-01T07:22:40;0.00;99.90
3818;DHT22;1924;48.078;11.516;2023-03-01T07:25:08;-0.30;99.90
3818;DHT22;1924;48.078;11.516;2023-03-01T07:27:34;-0.30;99.90
3818;DHT22;1924;48.078;11.516;2023-03-01T07:30:02;-0.30;99.90
3818;DHT22;1924;48.078;11.516;2023-03-01T07:32:29;-0.20;99.90
3818;DHT22;1924;48.078;11.516;2023-03-01T07:34:55;-0.30;99.90
3818;DHT22;1924;48.078;11.516;2023-03-01T07:37:23;-0.50;99.90
3818;DHT22;1924;48.078;11.516;2023-03-01T07:39:50;-0.50;99.90
3818;DHT22;1924;48.078;11.516;2023-03-01T07:42:17;-0.40;99.90
3818;DHT22;1924;48.078;11.516;2023-03-01T07:44:43;-0.30;99.90
3818;DHT22;1924;48.078;11.516;2023-03-01T07:47:10;-0.30;99.90
3818;DHT22;1924;48.078;11.516;2023-03-01T07:49:37;-0.30;99.90
3818;DHT22;1924;48.078;11.516;2023-03-01T07:52:04;-0.10;99.90
3818;DHT22;1924;48.078;11.516;2023-03-01T07:54:32;-0.20;99.90
3818;DHT22;1924;48.078;11.516;2023-03-01T07:56:59;-0.10;99.90
3818;DHT22;1924;48.078;11.516;2023-03-01T07:59:25;0.00;99.90
3818;DHT22;1924;48.078;11.516;2023-03-01T08:01:54;0.00;99.90
3818;DHT22;1924;48.078;11.516;2023-03-01T08:04:21;-0.10;99.90
3818;DHT22;1924;48.078;11.516;2023-03-01T08:06:50;0.00;99.90
3818;DHT22;1924;48.078;11.516;2023-03-01T08:09:16;-0.20;99.90
3818;DHT22;1924;48.078;11.516;2023-03-01T08:11:44;-0.20;99.90
3818;DHT22;1924;48.078;11.516;2023-03-01T08:14:11;-0.20;99.90
3818;DHT22;1924;48.078;11.516;2023-03-01T08:16:38;-0.30;99.90
3818;DHT22;1924;48.078;11.516;2023-03-01T08:19:05;-0.20;99.90
3818;DHT22;1924;48.078;11.516;2023-03-01T08:21:32;-0.20;99.90
3818;DHT22;1924;48.078;11.516;2023-03-01T08:24:00;-0.10;99.90
3818;DHT22;1924;48.078;11.516;2023-03-01T08:26:26;-0.10;99.90
3818;DHT22;1924;48.078;11.516;2023-03-01T08:28:54;-0.10;99.90
3818;DHT22;1924;48.078;11.516;2023-03-01T08:31:23;0.00;99.90
3818;DHT22;1924;48.078;11.516;2023-03-01T08:33:52;0.10;99.90
3818;DHT22;1924;48.078;11.516;2023-03-01T08:36:21;0.20;99.90
3818;DHT22;1924;48.078;11.516;2023-03-01T08:38:48;0.20;99.90
3818;DHT22;1924;48.078;11.516;2023-03-01T08:41:15;0.20;99.90
3818;DHT22;1924;48.078;11.516;2023-03-01T08:43:42;0.30;99.90
3818;DHT22;1924;48.078;11.516;2023-03-01T08:46:10;0.10;99.90
3818;DHT22;1924;48.078;11.516;2023-03-01T08:48:37;0.10;99.90
3818;DHT22;1924;48.078;11.516;2023-03-01T08:51:08;0.10;99.90
3818;DHT22;1924;48.078;11.516;2023-03-01T08:53:35;0.20;99.90
3818;DHT22;1924;48.078;11.516;2023-03-01T08:56:02;0.30;99.90
3818;DHT22;1924;48.078;11.516;2023-03-01T08:58:29;0.30;99.90
3818;DHT22;1924;48.078;11.516;2023-03-01T09:00:55;0.30;99.90
3818;DHT22;1924;48.078;11.516;2023-03-01T09:03:25;0.30;99.90
3818;DHT22;1924;48.078;11.516;2023-03-01T09:05:52;0.30;99.90
3818;DHT22;1924;48.078;11.516;2023-03-01T09:08:20;0.30;99.90
3818;DHT22;1924;48.078;11.516;2023-03-01T09:10:46;0.20;99.90
3818;DHT22;1924;48.078;11.516;2023-03-01T09:13:13;0.20;99.90
3818;DHT22;1924;48.078;11.516;2023-03-01T09:15:40;0.20;99.90
3818;DHT22;1924;48.078;11.516;2023-03-01T09:18:07;0.20;99.90
3818;DHT22;1924;48.078;11.516;2023-03-01T09:20:35;0.40;99.90
3818;DHT22;1924;48.078;11.516;2023-03-01T09:23:01;0.50;99.90
3818;DHT22;1924;48.078;11.516;2023-03-01T09:25:28;0.40;99.90
3818;DHT22;1924;48.078;11.516;2023-03-01T09:27:55;0.40;99.90
3818;DHT22;1924;48.078;11.516;2023-03-01T09:30:21;0.30;99.90
3818;DHT22;1924;48.078;11.516;2023-03-01T09:32:49;0.20;99.90
3818;DHT22;1924;48.078;11.516;2023-03-01T09:35:16;0.30;99.90
3818;DHT22;1924;48.078;11.516;2023-03-01T09:37:46;0.40;99.90
3818;DHT22;1924;48.078;11.516;2023-03-01T09:40:18;0.30;99.90
3818;DHT22;1924;48.078;11.516;2023-03-01T09:42:50;0.30;99.90
3818;DHT22;1924;48.078;11.516;2023-03-01T09:45:25;0.50;99.90
3818;DHT22;1924;48.078;11.516;2023-03-01T09:47:57;0.70;99.90
3818;DHT22;1924;48.078;11.516;2023-03-01T09:50:34;0.70;99.90
3818;DHT22;1924;48.078;11.516;2023-03-01T09:53:05;0.70;99.90
3818;DHT22;1924;48.078;11.516;2023-03-01T09:55:39;1.00;99.90
3818;DHT22;1924;48.078;11.516;2023-03-01T09:58:41;1.00;99.90
3818;DHT22;1924;48.078;11.516;2023-03-01T10:01:25;0.80;99.90
3818;DHT22;1924;48.078;11.516;2023-03-01T10:04:10;0.70;99.90
3818;DHT22;1924;48.078;11.516;2023-03-01T10:06:46;0.70;99.90
3818;DHT22;1924;48.078;11.516;2023-03-01T10:09:19;0.80;99.90
3818;DHT22;1924;48.078;11.516;2023-03-01T10:11:50;0.70;99.90
3818;DHT22;1924;48.078;11.516;2023-03-01T10:14:32;1.00;99.90
3818;DHT22;1924;48.078;11.516;2023-03-01T10:17:03;1.00;99.90
3818;DHT22;1924;48.078;11.516;2023-03-01T10:19:33;0.80;99.90
3818;DHT22;1924;48.078;11.516;2023-03-01T10:22:04;0.60;99.90
3818;DHT22;1924;48.078;11.516;2023-03-01T10:24:36;0.70;99.90
3818;DHT22;1924;48.078;11.516;2023-03-01T10:27:07;0.80;99.90
3818;DHT22;1924;48.078;11.516;2023-03-01T10:29:48;0.90;99.90
3818;DHT22;1924;48.078;11.516;2023-03-01T10:32:17;1.20;99.90
3818;DHT22;1924;48.078;11.516;2023-03-01T10:34:44;1.30;99.90
3818;DHT22;1924;48.078;11.516;2023-03-01T10:37:12;1.20;99.90
3818;DHT22;1924;48.078;11.516;2023-03-01T10:40:00;1.20;99.90
3818;DHT22;1924;48.078;11.516;2023-03-01T10:42:32;1.20;99.90
3818;DHT22;1924;48.078;11.516;2023-03-01T10:45:16;1.40;99.90
3818;DHT22;1924;48.078;11.516;2023-03-01T10:47:43;1.40;99.90
3818;DHT22;1924;48.078;11.516;2023-03-01T10:50:19;1.50;99.90
3818;DHT22;1924;48.078;11.516;2023-03-01T10:52:57;1.70;99.90
3818;DHT22;1924;48.078;11.516;2023-03-01T10:55:30;1.80;99.90
3818;DHT22;1924;48.078;11.516;2023-03-01T10:58:09;1.70;99.90
3818;DHT22;1924;48.078;11.516;2023-03-01T11:00:48;1.70;99.90
3818;DHT22;1924;48.078;11.516;2023-03-01T11:03:19;1.90;99.90
3818;DHT22;1924;48.078;11.516;2023-03-01T11:06:02;1.80;99.50
3818;DHT22;1924;48.078;11.516;2023-03-01T11:08:34;1.80;99.90
3818;DHT22;1924;48.078;11.516;2023-03-01T11:11:13;2.30;99.90
3818;DHT22;1924;48.078;11.516;2023-03-01T11:13:53;2.30;99.50
3818;DHT22;1924;48.078;11.516;2023-03-01T11:16:32;2.50;99.30
3818;DHT22;1924;48.078;11.516;2023-03-01T11:19:14;2.70;98.70
3818;DHT22;1924;48.078;11.516;2023-03-01T11:21:44;2.70;98.60
3818;DHT22;1924;48.078;11.516;2023-03-01T11:24:16;2.70;98.20
3818;DHT22;1924;48.078;11.516;2023-03-01T11:26:47;2.50;98.60
3818;DHT22;1924;48.078;11.516;2023-03-01T11:29:26;2.60;99.00
3818;DHT22;1924;48.078;11.516;2023-03-01T11:31:57;2.60;98.60
3818;DHT22;1924;48.078;11.516;2023-03-01T11:34:36;2.30;98.80
3818;DHT22;1924;48.078;11.516;2023-03-01T11:37:13;2.50;99.30
3818;DHT22;1924;48.078;11.516;2023-03-01T11:39:48;2.80;99.00
3818;DHT22;1924;48.078;11.516;2023-03-01T11:42:24;2.70;98.60
3818;DHT22;1924;48.078;11.516;2023-03-01T11:44:54;2.70;98.50
3818;DHT22;1924;48.078;11.516;2023-03-01T11:47:33;2.60;98.50
3818;DHT22;1924;48.078;11.516;2023-03-01T11:50:14;2.70;98.40
3818;DHT22;1924;48.078;11.516;2023-03-01T11:52:52;2.80;98.90
3818;DHT22;1924;48.078;11.516;2023-03-01T11:55:34;3.30;98.70
3818;DHT22;1924;48.078;11.516;2023-03-01T11:58:20;3.70;98.20
3818;DHT22;1924;48.078;11.516;2023-03-01T12:01:00;3.60;97.70
3818;DHT22;1924;48.078;11.516;2023-03-01T12:03:37;3.90;97.90
3818;DHT22;1924;48.078;11.516;2023-03-01T12:06:21;4.10;97.30
3818;DHT22;1924;48.078;11.516;2023-03-01T12:09:14;4.20;96.40
3818;DHT22;1924;48.078;11.516;2023-03-01T12:12:05;3.70;96.90
3818;DHT22;1924;48.078;11.516;2023-03-01T12:14:47;3.50;96.70
3818;DHT22;1924;48.078;11.516;2023-03-01T12:17:30;3.80;98.10
3818;DHT22;1924;48.078;11.516;2023-03-01T12:20:10;4.20;98.60
3818;DHT22;1924;48.078;11.516;2023-03-01T12:22:46;4.30;96.80
3818;DHT22;1924;48.078;11.516;2023-03-01T12:25:27;4.70;96.60
3818;DHT22;1924;48.078;11.516;2023-03-01T12:28:14;5.20;96.40
3818;DHT22;1924;48.078;11.516;2023-03-01T12:30:58;4.70;95.70
3818;DHT22;1924;48.078;11.516;2023-03-01T12:33:34;4.30;95.80
3818;DHT22;1924;48.078;11.516;2023-03-01T12:36:21;3.80;96.50
3818;DHT22;1924;48.078;11.516;2023-03-01T12:38:59;3.80;96.90
3818;DHT22;1924;48.078;11.516;2023-03-01T12:41:48;4.20;97.00
3818;DHT22;1924;48.078;11.516;2023-03-01T12:44:30;4.50;96.70
3818;DHT22;1924;48.078;11.516;2023-03-01T12:47:19;4.60;96.60
3818;DHT22;1924;48.078;11.516;2023-03-01T12:49:51;4.60;96.10
3818;DHT22;1924;48.078;11.516;2023-03-01T12:52:26;4.70;96.10
3818;DHT22;1924;48.078;11.516;2023-03-01T12:54:56;5.10;96.90
3818;DHT22;1924;48.078;11.516;2023-03-01T12:57:29;5.50;95.50
3818;DHT22;1924;48.078;11.516;2023-03-01T13:00:15;4.80;95.50
3818;DHT22;1924;48.078;11.516;2023-03-01T13:02:49;5.30;97.10
3818;DHT22;1924;48.078;11.516;2023-03-01T13:05:33;5.40;95.20
3818;DHT22;1924;48.078;11.516;2023-03-01T13:08:06;5.60;95.10
3818;DHT22;1924;48.078;11.516;2023-03-01T13:10:42;5.90;95.60
3818;DHT22;1924;48.078;11.516;2023-03-01T13:13:18;5.60;94.40
3818;DHT22;1924;48.078;11.516;2023-03-01T13:15:45;5.50;94.60
3818;DHT22;1924;48.078;11.516;2023-03-01T13:18:29;5.50;94.70
3818;DHT22;1924;48.078;11.516;2023-03-01T13:20:58;5.30;94.70
3818;DHT22;1924;48.078;11.516;2023-03-01T13:23:28;5.00;94.90
3818;DHT22;1924;48.078;11.516;2023-03-01T13:26:09;5.10;95.40
3818;DHT22;1924;48.078;11.516;2023-03-01T13:28:51;5.20;95.40
3818;DHT22;1924;48.078;11.516;2023-03-01T13:31:55;5.20;95.10
3818;DHT22;1924;48.078;11.516;2023-03-01T13:34:46;5.10;95.40
3818;DHT22;1924;48.078;11.516;2023-03-01T13:37:35;4.90;95.40
3818;DHT22;1924;48.078;11.516;2023-03-01T13:43:27;4.90;95.70
3818;DHT22;1924;48.078;11.516;2023-03-01T13:45:57;5.00;96.20
3818;DHT22;1924;48.078;11.516;2023-03-01T13:48:28;5.40;96.70
3818;DHT22;1924;48.078;11.516;2023-03-01T13:50:59;5.80;95.80
3818;DHT22;1924;48.078;11.516;2023-03-01T13:53:31;5.80;95.40
3818;DHT22;1924;48.078;11.516;2023-03-01T13:56:01;5.70;95.60
3818;DHT22;1924;48.078;11.516;2023-03-01T13:58:31;5.60;94.80
3818;DHT22;1924;48.078;11.516;2023-03-01T14:01:00;5.50;94.80
3818;DHT22;1924;48.078;11.516;2023-03-01T14:03:28;5.50;94.80
3818;DHT22;1924;48.078;11.516;2023-03-01T14:06:03;5.30;94.90
3818;DHT22;1924;48.078;11.516;2023-03-01T14:08:34;5.10;95.40
3818;DHT22;1924;48.078;11.516;2023-03-01T14:11:33;5.30;95.20
3818;DHT22;1924;48.078;11.516;2023-03-01T14:14:23;5.10;95.80
3818;DHT22;1924;48.078;11.516;2023-03-01T14:17:03;5.00;95.80
3818;DHT22;1924;48.078;11.516;2023-03-01T14:19:33;5.10;95.80
3818;DHT22;1924;48.078;11.516;2023-03-01T14:22:10;5.30;95.80
3818;DHT22;1924;48.078;11.516;2023-03-01T14:24:46;5.50;95.40
3818;DHT22;1924;48.078;11.516;2023-03-01T14:27:15;5.50;95.40
3818;DHT22;1924;48.078;11.516;2023-03-01T14:29:42;5.30;95.00
3818;DHT22;1924;48.078;11.516;2023-03-01T14:32:12;5.30;95.20
3818;DHT22;1924;48.078;11.516;2023-03-01T14:34:43;5.30;95.20
3818;DHT22;1924;48.078;11.516;2023-03-01T14:37:19;5.20;95.50
3818;DHT22;1924;48.078;11.516;2023-03-01T14:39:47;5.20;95.70
3818;DHT22;1924;48.078;11.516;2023-03-01T14:42:14;5.30;95.70
3818;DHT22;1924;48.078;11.516;2023-03-01T14:44:42;5.20;95.60
3818;DHT22;1924;48.078;11.516;2023-03-01T14:47:12;5.00;95.40
3818;DHT22;1924;48.078;11.516;2023-03-01T14:49:41;4.90;95.60
3818;DHT22;1924;48.078;11.516;2023-03-01T14:52:20;4.90;95.80
3818;DHT22;1924;48.078;11.516;2023-03-01T14:54:48;4.90;95.90
3818;DHT22;1924;48.078;11.516;2023-03-01T14:57:18;5.00;96.10
3818;DHT22;1924;48.078;11.516;2023-03-01T14:59:47;5.00;96.30
3818;DHT22;1924;48.078;11.516;2023-03-01T15:02:18;5.20;96.00
3818;DHT22;1924;48.078;11.516;2023-03-01T15:04:48;5.10;96.10
3818;DHT22;1924;48.078;11.516;2023-03-01T15:07:15;5.10;96.40
3818;DHT22;1924;48.078;11.516;2023-03-01T15:09:44;5.20;96.30
3818;DHT22;1924;48.078;11.516;2023-03-01T15:12:37;5.10;96.20
3818;DHT22;1924;48.078;11.516;2023-03-01T15:18:17;5.20;96.20
3818;DHT22;1924;48.078;11.516;2023-03-01T15:20:44;5.10;96.50
3818;DHT22;1924;48.078;11.516;2023-03-01T15:23:20;5.20;96.20
3818;DHT22;1924;48.078;11.516;2023-03-01T15:25:49;5.30;96.30
3818;DHT22;1924;48.078;11.516;2023-03-01T15:28:23;5.20;96.10
3818;DHT22;1924;48.078;11.516;2023-03-01T15:31:00;5.20;96.20
3818;DHT22;1924;48.078;11.516;2023-03-01T15:33:35;5.10;96.10
3818;DHT22;1924;48.078;11.516;2023-03-01T15:36:29;5.20;96.50
3818;DHT22;1924;48.078;11.516;2023-03-01T15:38:57;5.10;96.50
3818;DHT22;1924;48.078;11.516;2023-03-01T15:41:28;5.10;96.70
3818;DHT22;1924;48.078;11.516;2023-03-01T15:43:57;5.20;96.80
3818;DHT22;1924;48.078;11.516;2023-03-01T15:46:27;5.20;96.70
3818;DHT22;1924;48.078;11.516;2023-03-01T15:48:57;5.20;96.90
3818;DHT22;1924;48.078;11.516;2023-03-01T15:51:29;5.30;97.00
3818;DHT22;1924;48.078;11.516;2023-03-01T15:53:59;5.30;96.90
3818;DHT22;1924;48.078;11.516;2023-03-01T15:56:28;5.30;96.60
3818;DHT22;1924;48.078;11.516;2023-03-01T15:58:58;5.20;96.50
3818;DHT22;1924;48.078;11.516;2023-03-01T16:01:25;5.20;96.80
3818;DHT22;1924;48.078;11.516;2023-03-01T16:03:52;5.10;96.70
3818;DHT22;1924;48.078;11.516;2023-03-01T16:06:19;5.10;96.80
3818;DHT22;1924;48.078;11.516;2023-03-01T16:08:46;5.00;97.00
3818;DHT22;1924;48.078;11.516;2023-03-01T16:11:15;5.10;97.00
3818;DHT22;1924;48.078;11.516;2023-03-01T16:13:44;5.10;97.10
3818;DHT22;1924;48.078;11.516;2023-03-01T16:16:12;5.20;97.30
3818;DHT22;1924;48.078;11.516;2023-03-01T16:18:42;5.20;97.20
3818;DHT22;1924;48.078;11.516;2023-03-01T16:21:14;5.20;97.10
3818;DHT22;1924;48.078;11.516;2023-03-01T16:23:42;5.10;97.10
3818;DHT22;1924;48.078;11.516;2023-03-01T16:26:09;5.00;97.30
3818;DHT22;1924;48.078;11.516;2023-03-01T16:28:36;5.00;97.50
3818;DHT22;1924;48.078;11.516;2023-03-01T16:31:04;5.00;97.40
3818;DHT22;1924;48.078;11.516;2023-03-01T16:33:31;4.90;97.40
3818;DHT22;1924;48.078;11.516;2023-03-01T16:35:59;4.90;97.60
3818;DHT22;1924;48.078;11.516;2023-03-01T16:38:28;4.90;97.80
3818;DHT22;1924;48.078;11.516;2023-03-01T16:40:54;4.90;98.40
3818;DHT22;1924;48.078;11.516;2023-03-01T16:43:21;4.80;98.40
3818;DHT22;1924;48.078;11.516;2023-03-01T16:45:48;4.70;98.80
3818;DHT22;1924;48.078;11.516;2023-03-01T16:48:16;4.70;98.70
3818;DHT22;1924;48.078;11.516;2023-03-01T16:50:43;4.50;98.90
3818;DHT22;1924;48.078;11.516;2023-03-01T16:53:10;4.40;99.30
3818;DHT22;1924;48.078;11.516;2023-03-01T16:55:36;4.50;99.30
3818;DHT22;1924;48.078;11.516;2023-03-01T16:58:10;4.40;99.30
3818;DHT22;1924;48.078;11.516;2023-03-01T17:00:37;4.30;99.40
3818;DHT22;1924;48.078;11.516;2023-03-01T17:03:03;4.20;99.60
3818;DHT22;1924;48.078;11.516;2023-03-01T17:05:31;4.10;99.70
3818;DHT22;1924;48.078;11.516;2023-03-01T17:07:58;4.00;99.90
3818;DHT22;1924;48.078;11.516;2023-03-01T17:10:25;3.90;99.90
3818;DHT22;1924;48.078;11.516;2023-03-01T17:12:52;3.80;99.90
3818;DHT22;1924;48.078;11.516;2023-03-01T17:15:19;3.70;99.90
3818;DHT22;1924;48.078;11.516;2023-03-01T17:17:45;3.70;99.90
3818;DHT22;1924;48.078;11.516;2023-03-01T17:20:16;3.60;99.90
3818;DHT22;1924;48.078;11.516;2023-03-01T17:22:44;3.50;99.90
3818;DHT22;1924;48.078;11.516;2023-03-01T17:25:12;3.50;99.90
3818;DHT22;1924;48.078;11.516;2023-03-01T17:27:39;3.40;99.90
3818;DHT22;1924;48.078;11.516;2023-03-01T17:30:11;3.40;99.90
3818;DHT22;1924;48.078;11.516;2023-03-01T17:32:39;3.30;99.90
3818;DHT22;1924;48.078;11.516;2023-03-01T17:35:07;3.20;99.90
3818;DHT22;1924;48.078;11.516;2023-03-01T17:37:36;3.10;99.90
3818;DHT22;1924;48.078;11.516;2023-03-01T17:40:06;3.00;99.90
3818;DHT22;1924;48.078;11.516;2023-03-01T17:42:33;3.00;99.90
3818;DHT22;1924;48.078;11.516;2023-03-01T17:45:00;3.00;99.90
3818;DHT22;1924;48.078;11.516;2023-03-01T17:47:26;3.00;99.90
3818;DHT22;1924;48.078;11.516;2023-03-01T17:49:53;2.90;99.90
3818;DHT22;1924;48.078;11.516;2023-03-01T17:52:20;2.90;99.90
3818;DHT22;1924;48.078;11.516;2023-03-01T17:54:48;2.90;99.90
3818;DHT22;1924;48.078;11.516;2023-03-01T17:57:16;2.80;99.90
3818;DHT22;1924;48.078;11.516;2023-03-01T17:59:43;2.80;99.90
3818;DHT22;1924;48.078;11.516;2023-03-01T18:02:10;2.80;99.90
3818;DHT22;1924;48.078;11.516;2023-03-01T18:04:37;2.70;99.90
3818;DHT22;1924;48.078;11.516;2023-03-01T18:07:04;2.70;99.90
3818;DHT22;1924;48.078;11.516;2023-03-01T18:09:31;2.60;99.90
3818;DHT22;1924;48.078;11.516;2023-03-01T18:11:57;2.50;99.90
3818;DHT22;1924;48.078;11.516;2023-03-01T18:14:25;2.60;99.90
3818;DHT22;1924;48.078;11.516;2023-03-01T18:16:54;2.50;99.90
3818;DHT22;1924;48.078;11.516;2023-03-01T18:19:20;2.50;99.90
3818;DHT22;1924;48.078;11.516;2023-03-01T18:21:47;2.40;99.90
3818;DHT22;1924;48.078;11.516;2023-03-01T18:24:14;2.30;99.90